createdAt,value
2017-12-28T06:56:47.847Z,3
2017-12-28T07:04:18.425Z,7
2017-12-28T07:06:48.493Z,10
2017-12-28T07:11:18.829Z,13
2017-12-28T07:12:48.873Z,17
2017-12-28T07:14:18.942Z,20
2017-12-28T07:14:48.992Z,23
2017-12-28T07:16:19.085Z,27
2017-12-28T07:16:49.151Z,30
2017-12-28T07:17:19.186Z,27
2017-12-28T07:17:49.154Z,30
2017-12-28T07:18:19.223Z,33
2017-12-28T07:18:49.260Z,37
2017-12-28T07:19:49.314Z,40
2017-12-28T07:20:49.373Z,47
2017-12-28T07:21:19.434Z,50
2017-12-28T07:21:49.413Z,53
2017-12-28T07:22:49.466Z,57
2017-12-28T07:23:49.545Z,53
2017-12-28T07:24:19.575Z,57
2017-12-28T07:25:19.614Z,53
2017-12-28T07:25:49.680Z,50
2017-12-28T07:26:49.712Z,47
2017-12-28T07:27:49.773Z,50
2017-12-28T07:28:19.805Z,53
2017-12-28T07:28:49.852Z,60
2017-12-28T07:29:19.887Z,67
2017-12-28T07:29:49.927Z,70
2017-12-28T07:30:19.960Z,73
2017-12-28T07:30:49.957Z,80
2017-12-28T07:31:19.997Z,77
2017-12-28T07:31:50.003Z,87
2017-12-28T07:32:20.077Z,93
2017-12-28T07:33:20.214Z,103
2017-12-28T07:33:50.135Z,110
2017-12-28T07:34:20.351Z,107
2017-12-28T07:34:50.184Z,113
2017-12-28T07:35:50.268Z,120
2017-12-28T07:36:20.335Z,127
2017-12-28T07:36:50.350Z,130
2017-12-28T07:37:20.392Z,133
2017-12-28T07:37:50.437Z,127
2017-12-28T07:38:20.447Z,120
2017-12-28T07:39:20.524Z,130
2017-12-28T07:39:50.576Z,140
2017-12-28T07:40:20.576Z,150
2017-12-28T07:40:50.597Z,160
2017-12-28T07:41:20.658Z,167
2017-12-28T07:41:50.690Z,177
2017-12-28T07:42:20.694Z,190
2017-12-28T07:42:50.691Z,187
2017-12-28T07:43:50.769Z,183
2017-12-28T07:44:20.830Z,187
2017-12-28T07:44:50.799Z,180
2017-12-28T07:45:20.867Z,183
2017-12-28T07:45:50.883Z,203
2017-12-28T07:46:20.970Z,217
2017-12-28T07:46:50.941Z,223
2017-12-28T07:47:21.020Z,220
2017-12-28T07:47:50.989Z,237
2017-12-28T07:48:21.081Z,230
2017-12-28T07:48:51.063Z,227
2017-12-28T07:49:21.107Z,233
2017-12-28T07:49:51.109Z,267
2017-12-28T07:50:21.165Z,263
2017-12-28T07:50:51.190Z,283
2017-12-28T07:51:21.256Z,287
2017-12-28T07:51:51.283Z,293
2017-12-28T07:52:21.354Z,280
2017-12-28T07:52:51.373Z,300
2017-12-28T07:54:21.406Z,320
2017-12-28T07:54:51.470Z,330
2017-12-28T07:55:21.507Z,357
2017-12-28T07:55:51.517Z,353
2017-12-28T07:56:21.576Z,347
2017-12-28T07:56:51.566Z,350
2017-12-28T07:57:21.624Z,340
2017-12-28T07:57:51.669Z,350
2017-12-28T07:58:21.673Z,337
2017-12-28T07:58:51.733Z,307
2017-12-28T07:59:51.781Z,320
2017-12-28T08:00:21.806Z,330
2017-12-28T08:00:51.839Z,340
2017-12-28T08:01:21.865Z,373
2017-12-28T08:01:51.924Z,433
2017-12-28T08:02:21.923Z,467
2017-12-28T08:02:51.973Z,487
2017-12-28T08:03:22.037Z,483
2017-12-28T08:03:52.012Z,520
2017-12-28T08:04:22.045Z,553
2017-12-28T08:04:52.109Z,563
2017-12-28T08:05:22.152Z,557
2017-12-28T08:05:52.151Z,563
2017-12-28T08:06:22.195Z,560
2017-12-28T08:07:52.282Z,567
2017-12-28T08:08:22.308Z,570
2017-12-28T08:08:52.330Z,567
2017-12-28T08:09:23.114Z,570
2017-12-28T08:09:53.110Z,593
2017-12-28T08:10:23.220Z,620
2017-12-28T08:10:53.241Z,623
2017-12-28T08:11:23.222Z,613
2017-12-28T08:11:53.271Z,603
2017-12-28T08:12:23.360Z,627
2017-12-28T08:12:53.303Z,670
2017-12-28T08:13:23.392Z,693
2017-12-28T08:13:53.391Z,683
2017-12-28T08:14:23.488Z,693
2017-12-28T08:14:53.439Z,680
2017-12-28T08:15:23.524Z,713
2017-12-28T08:15:53.541Z,663
2017-12-28T08:16:23.571Z,727
2017-12-28T08:16:53.590Z,813
2017-12-28T08:17:23.820Z,873
2017-12-28T08:17:53.643Z,917
2017-12-28T08:18:53.659Z,900
2017-12-28T08:19:23.750Z,930
2017-12-28T08:19:53.719Z,987
2017-12-28T08:20:23.856Z,1040
2017-12-28T08:20:53.788Z,1080
2017-12-28T08:21:23.845Z,1110
2017-12-28T08:22:23.900Z,1097
2017-12-28T08:22:53.920Z,1100
2017-12-28T08:23:24.001Z,1163
2017-12-28T08:23:53.960Z,1123
2017-12-28T08:24:24.043Z,1073
2017-12-28T08:24:54.021Z,1083
2017-12-28T08:25:24.157Z,1123
2017-12-28T08:25:54.090Z,1087
2017-12-28T08:26:24.184Z,1107
2017-12-28T08:26:54.341Z,1147
2017-12-28T08:27:24.246Z,1177
2017-12-28T08:27:54.248Z,1203
2017-12-28T08:28:24.305Z,1217
2017-12-28T08:28:54.335Z,1213
2017-12-28T08:29:24.346Z,1210
2017-12-28T08:29:54.398Z,1207
2017-12-28T08:30:54.437Z,1233
2017-12-28T08:31:24.510Z,1257
2017-12-28T08:31:54.508Z,1320
2017-12-28T08:32:24.574Z,1377
2017-12-28T08:32:54.570Z,1480
2017-12-28T08:33:24.634Z,1563
2017-12-28T08:33:54.623Z,1617
2017-12-28T08:34:24.702Z,1657
2017-12-28T08:34:54.664Z,1683
2017-12-28T08:35:24.742Z,1727
2017-12-28T08:35:54.813Z,1733
2017-12-28T08:36:24.776Z,1583
2017-12-28T08:36:54.765Z,1410
2017-12-28T08:37:24.843Z,1390
2017-12-28T08:37:54.858Z,1337
2017-12-28T08:38:24.899Z,1307
2017-12-28T08:38:55.110Z,1380
2017-12-28T08:39:25.008Z,1390
2017-12-28T08:39:55.028Z,1347
2017-12-28T08:40:25.027Z,1257
2017-12-28T08:40:55.072Z,1157
2017-12-28T08:41:25.108Z,1070
2017-12-28T08:42:25.240Z,1073
2017-12-28T08:42:55.200Z,1053
2017-12-28T08:43:25.219Z,977
2017-12-28T08:43:55.270Z,877
2017-12-28T08:44:25.301Z,880
2017-12-28T08:44:55.280Z,920
2017-12-28T08:45:25.383Z,903
2017-12-28T08:45:55.366Z,940
2017-12-28T08:46:25.405Z,957
2017-12-28T08:46:55.436Z,1037
2017-12-28T08:47:25.535Z,1253
2017-12-28T08:47:55.504Z,1490
2017-12-28T08:48:25.550Z,1613
2017-12-28T08:48:55.528Z,1600
2017-12-28T08:49:25.600Z,1620
2017-12-28T08:49:55.811Z,1707
2017-12-28T08:50:25.628Z,1700
2017-12-28T08:50:55.650Z,1773
2017-12-28T08:51:25.696Z,1993
2017-12-28T08:51:55.739Z,2160
2017-12-28T08:52:25.826Z,2287
2017-12-28T08:52:55.764Z,2357
2017-12-28T08:53:25.876Z,2290
2017-12-28T08:53:55.815Z,2520
2017-12-28T08:54:25.881Z,2767
2017-12-28T08:54:55.902Z,2987
2017-12-28T08:55:25.943Z,3137
2017-12-28T08:55:55.932Z,3157
2017-12-28T08:56:26.040Z,3140
2017-12-28T08:56:56.402Z,3263
2017-12-28T08:57:26.090Z,3467
2017-12-28T08:57:56.089Z,3590
2017-12-28T08:58:26.197Z,3807
2017-12-28T08:58:56.210Z,4010
2017-12-28T08:59:26.186Z,4080
2017-12-28T08:59:56.215Z,4087
2017-12-28T09:00:26.269Z,4073
2017-12-28T09:00:56.317Z,3950
2017-12-28T09:01:26.370Z,3983
2017-12-28T09:01:56.359Z,4353
2017-12-28T09:02:26.451Z,4283
2017-12-28T09:02:56.476Z,4147
2017-12-28T09:03:26.433Z,4190
2017-12-28T09:03:56.521Z,3937
2017-12-28T09:04:26.538Z,3657
2017-12-28T09:04:56.507Z,3547
2017-12-28T09:05:26.567Z,3490
2017-12-28T09:05:56.616Z,3383
2017-12-28T09:06:26.682Z,3300
2017-12-28T09:06:56.674Z,3273
2017-12-28T09:07:26.728Z,3253
2017-12-28T09:07:56.719Z,3203
2017-12-28T09:08:26.799Z,3167
2017-12-28T09:08:56.751Z,3103
2017-12-28T09:09:26.794Z,3033
2017-12-28T09:09:56.797Z,2993
2017-12-28T09:10:27.011Z,2937
2017-12-28T09:10:56.918Z,2877
2017-12-28T09:11:26.936Z,2853
2017-12-28T09:11:56.990Z,2883
2017-12-28T09:12:27.231Z,2947
2017-12-28T09:12:57.014Z,3030
2017-12-28T09:13:27.089Z,3107
2017-12-28T09:13:57.047Z,3153
2017-12-28T09:14:27.123Z,3200
2017-12-28T09:14:57.116Z,3237
2017-12-28T09:15:27.163Z,3260
2017-12-28T09:15:57.219Z,3293
2017-12-28T09:16:27.280Z,3323
2017-12-28T09:16:57.260Z,3333
2017-12-28T09:17:27.274Z,3320
2017-12-28T09:17:57.303Z,3313
2017-12-28T09:18:27.396Z,3343
2017-12-28T09:18:57.369Z,3363
2017-12-28T09:19:27.492Z,3440
2017-12-28T09:19:57.464Z,3450
2017-12-28T09:20:27.535Z,3477
2017-12-28T09:20:57.539Z,3530
2017-12-28T09:21:27.566Z,3630
2017-12-28T09:21:57.558Z,3700
2017-12-28T09:22:27.615Z,3653
2017-12-28T09:22:57.641Z,3657
2017-12-28T09:23:27.701Z,3633
2017-12-28T09:23:57.797Z,3623
2017-12-28T09:24:27.792Z,3597
2017-12-28T09:24:57.763Z,3583
2017-12-28T09:25:27.831Z,3633
2017-12-28T09:25:57.832Z,3647
2017-12-28T09:26:27.853Z,3720
2017-12-28T09:26:57.908Z,3797
2017-12-28T09:27:27.952Z,3820
2017-12-28T09:27:57.932Z,3890
2017-12-28T09:28:28.042Z,4060
2017-12-28T09:28:58.015Z,4237
2017-12-28T09:29:28.033Z,4337
2017-12-28T09:29:58.125Z,4420
2017-12-28T09:30:28.156Z,4587
2017-12-28T09:30:58.232Z,4560
2017-12-28T09:31:28.181Z,4490
2017-12-28T09:31:58.230Z,4033
2017-12-28T09:32:28.243Z,4243
2017-12-28T09:32:58.305Z,4043
2017-12-28T09:33:28.353Z,3987
2017-12-28T09:33:58.428Z,3923
2017-12-28T09:34:28.383Z,3837
2017-12-28T09:34:58.363Z,3817
2017-12-28T09:35:28.443Z,3750
2017-12-28T09:35:58.503Z,3667
2017-12-28T09:36:28.463Z,3627
2017-12-28T09:36:58.508Z,3553
2017-12-28T09:37:28.592Z,3387
2017-12-28T09:37:58.530Z,3290
2017-12-28T09:38:28.576Z,3170
2017-12-28T09:38:58.666Z,3093
2017-12-28T09:39:28.648Z,2970
2017-12-28T09:39:58.703Z,2843
2017-12-28T09:40:28.701Z,2737
2017-12-28T09:40:58.809Z,2680
2017-12-28T09:41:28.798Z,2660
2017-12-28T09:41:58.800Z,2673
2017-12-28T09:42:28.836Z,2683
2017-12-28T09:42:58.988Z,2723
2017-12-28T09:44:29.048Z,2727
2017-12-28T09:44:58.975Z,2763
2017-12-28T09:45:29.055Z,2817
2017-12-28T09:45:59.027Z,2863
2017-12-28T09:46:29.072Z,2923
2017-12-28T09:46:59.146Z,2973
2017-12-28T09:47:29.122Z,3007
2017-12-28T09:48:29.248Z,2990
2017-12-28T09:48:59.201Z,2993
2017-12-28T09:49:29.289Z,3023
2017-12-28T09:49:59.354Z,3043
2017-12-28T09:50:29.351Z,3153
2017-12-28T09:50:59.343Z,3237
2017-12-28T09:51:29.424Z,3350
2017-12-28T09:51:59.425Z,3437
2017-12-28T09:52:59.452Z,3477
2017-12-28T09:53:29.513Z,3523
2017-12-28T09:53:59.545Z,3560
2017-12-28T09:54:29.655Z,3670
2017-12-28T09:54:59.593Z,3777
2017-12-28T09:55:29.622Z,3850
2017-12-28T09:55:59.683Z,3890
2017-12-28T09:56:29.720Z,3937
2017-12-28T09:56:59.743Z,4010
2017-12-28T09:57:29.870Z,4050
2017-12-28T09:57:59.812Z,4067
2017-12-28T09:58:29.820Z,4087
2017-12-28T09:58:59.823Z,4123
2017-12-28T09:59:29.922Z,4070
2017-12-28T09:59:59.905Z,3967
2017-12-28T10:00:30.010Z,4040
2017-12-28T10:01:00.005Z,4150
2017-12-28T10:01:29.996Z,4233
2017-12-28T10:01:59.995Z,4220
2017-12-28T10:02:30.052Z,4177
2017-12-28T10:03:00.115Z,4023
2017-12-28T10:03:30.162Z,3967
2017-12-28T10:04:00.117Z,4110
2017-12-28T10:04:30.537Z,4190
2017-12-28T10:05:00.224Z,4267
2017-12-28T10:05:30.252Z,4297
2017-12-28T10:06:00.834Z,4287
2017-12-28T10:06:30.347Z,4367
2017-12-28T10:07:00.842Z,4090
2017-12-28T10:07:30.371Z,3907
2017-12-28T10:08:00.784Z,4003
2017-12-28T10:08:30.481Z,3957
2017-12-28T10:09:00.991Z,4030
2017-12-28T10:09:30.553Z,3973
2017-12-28T10:10:00.674Z,3813
2017-12-28T10:10:30.622Z,3910
2017-12-28T10:11:01.065Z,4107
2017-12-28T10:11:30.631Z,4193
2017-12-28T10:12:00.889Z,4237
2017-12-28T10:12:30.714Z,4197
2017-12-28T10:13:00.797Z,4237
2017-12-28T10:13:30.767Z,4287
2017-12-28T10:14:00.908Z,4303
2017-12-28T10:14:30.883Z,4297
2017-12-28T10:15:00.908Z,4370
2017-12-28T10:15:30.996Z,4397
2017-12-28T10:16:00.859Z,4210
2017-12-28T10:16:30.929Z,4230
2017-12-28T10:17:00.970Z,4457
2017-12-28T10:17:31.069Z,4580
2017-12-28T10:18:00.998Z,4727
2017-12-28T10:19:01.088Z,4720
2017-12-28T10:19:31.189Z,4847
2017-12-28T10:20:01.134Z,4893
2017-12-28T10:20:31.194Z,5053
2017-12-28T10:21:01.175Z,5313
2017-12-28T10:21:31.258Z,5443
2017-12-28T10:22:01.231Z,5420
2017-12-28T10:22:31.287Z,5333
2017-12-28T10:23:01.316Z,5193
2017-12-28T10:23:31.400Z,5157
2017-12-28T10:24:01.363Z,5163
2017-12-28T10:24:31.468Z,5240
2017-12-28T10:25:01.444Z,5217
2017-12-28T10:25:31.561Z,5240
2017-12-28T10:26:02.189Z,5147
2017-12-28T10:26:31.546Z,5087
2017-12-28T10:27:01.599Z,5077
2017-12-28T10:27:31.640Z,5007
2017-12-28T10:28:01.620Z,4943
2017-12-28T10:29:01.733Z,4890
2017-12-28T10:29:31.752Z,4867
2017-12-28T10:30:01.794Z,4783
2017-12-28T10:31:02.109Z,4823
2017-12-28T10:31:31.866Z,4727
2017-12-28T10:32:01.860Z,4667
2017-12-28T10:32:31.889Z,4580
2017-12-28T10:33:02.167Z,4440
2017-12-28T10:33:32.121Z,4523
2017-12-28T10:34:02.018Z,4623
2017-12-28T10:34:32.069Z,4660
2017-12-28T10:35:02.093Z,4623
2017-12-28T10:35:32.113Z,4590
2017-12-28T10:36:02.098Z,4520
2017-12-28T10:36:32.135Z,4723
2017-12-28T10:37:02.201Z,4847
2017-12-28T10:37:32.277Z,4900
2017-12-28T10:38:02.234Z,4957
2017-12-28T10:38:32.293Z,4990
2017-12-28T10:39:02.282Z,5023
2017-12-28T10:39:32.452Z,5060
2017-12-28T10:40:02.407Z,5123
2017-12-28T10:40:32.484Z,5163
2017-12-28T10:41:02.463Z,5233
2017-12-28T10:42:02.457Z,5257
2017-12-28T10:42:32.538Z,5287
2017-12-28T10:43:02.547Z,5320
2017-12-28T10:43:32.629Z,5347
2017-12-28T10:44:02.853Z,5357
2017-12-28T10:44:34.185Z,5383
2017-12-28T10:45:02.748Z,5437
2017-12-28T10:45:32.702Z,5477
2017-12-28T10:46:02.719Z,5520
2017-12-28T10:46:32.730Z,5547
2017-12-28T10:47:02.805Z,5560
2017-12-28T10:47:32.861Z,5557
2017-12-28T10:48:02.852Z,5583
2017-12-28T10:48:32.873Z,5610
2017-12-28T10:49:02.935Z,5573
2017-12-28T10:49:33.037Z,5560
2017-12-28T10:50:02.995Z,5550
2017-12-28T10:50:33.015Z,5540
2017-12-28T10:51:02.997Z,5510
2017-12-28T10:51:33.061Z,5493
2017-12-28T10:52:03.151Z,5463
2017-12-28T10:52:33.141Z,5467
2017-12-28T10:53:03.143Z,5520
2017-12-28T10:53:33.187Z,5530
2017-12-28T10:54:03.216Z,5513
2017-12-28T10:54:33.357Z,5473
2017-12-28T10:55:03.365Z,5440
2017-12-28T10:55:33.375Z,5430
2017-12-28T10:56:03.372Z,5440
2017-12-28T10:56:33.374Z,5463
2017-12-28T10:57:03.473Z,5480
2017-12-28T10:57:33.529Z,5507
2017-12-28T10:58:03.489Z,5547
2017-12-28T10:58:33.543Z,5567
2017-12-28T10:59:03.604Z,5593
2017-12-28T10:59:33.662Z,5587
2017-12-28T11:00:03.735Z,5620
2017-12-28T11:00:33.691Z,5657
2017-12-28T11:01:03.737Z,5673
2017-12-28T11:01:33.760Z,5680
2017-12-28T11:02:03.752Z,5650
2017-12-28T11:02:33.792Z,5613
2017-12-28T11:03:03.796Z,5550
2017-12-28T11:03:33.920Z,5507
2017-12-28T11:04:03.892Z,5483
2017-12-28T11:04:33.939Z,5520
2017-12-28T11:05:04.207Z,5620
2017-12-28T11:05:34.034Z,5690
2017-12-28T11:06:04.005Z,5697
2017-12-28T11:06:33.994Z,5627
2017-12-28T11:07:04.096Z,5467
2017-12-28T11:07:34.067Z,5300
2017-12-28T11:08:04.121Z,5333
2017-12-28T11:08:34.146Z,5287
2017-12-28T11:09:04.185Z,5093
2017-12-28T11:09:34.269Z,4887
2017-12-28T11:10:04.295Z,4893
2017-12-28T11:10:34.266Z,4900
2017-12-28T11:11:04.334Z,4797
2017-12-28T11:11:34.387Z,4693
2017-12-28T11:12:04.357Z,4637
2017-12-28T11:12:34.408Z,4550
2017-12-28T11:13:04.411Z,4423
2017-12-28T11:13:34.435Z,4280
2017-12-28T11:14:04.563Z,4093
2017-12-28T11:14:34.599Z,3993
2017-12-28T11:15:04.617Z,4153
2017-12-28T11:15:34.557Z,4310
2017-12-28T11:16:04.578Z,4410
2017-12-28T11:16:34.676Z,4433
2017-12-28T11:17:04.609Z,4410
2017-12-28T11:17:34.683Z,4307
2017-12-28T11:18:04.711Z,4140
2017-12-28T11:18:34.768Z,4197
2017-12-28T11:19:04.787Z,4257
2017-12-28T11:19:34.885Z,4217
2017-12-28T11:20:04.853Z,4160
2017-12-28T11:20:34.836Z,4073
2017-12-28T11:21:04.928Z,4037
2017-12-28T11:21:34.934Z,3930
2017-12-28T11:22:04.961Z,3833
2017-12-28T11:22:34.973Z,3780
2017-12-28T11:23:04.965Z,3810
2017-12-28T11:23:35.013Z,3897
2017-12-28T11:24:05.057Z,3983
2017-12-28T11:24:35.139Z,3903
2017-12-28T11:25:05.178Z,3897
2017-12-28T11:25:35.193Z,3737
2017-12-28T11:26:05.235Z,3483
2017-12-28T11:26:35.220Z,3297
2017-12-28T11:27:05.226Z,3127
2017-12-28T11:27:35.346Z,3370
2017-12-28T11:28:05.354Z,3640
2017-12-28T11:28:35.391Z,3543
2017-12-28T11:29:05.460Z,3413
2017-12-28T11:29:35.427Z,3417
2017-12-28T11:30:05.547Z,3577
2017-12-28T11:30:35.577Z,3477
2017-12-28T11:31:05.541Z,3423
2017-12-28T11:31:35.583Z,3577
2017-12-28T11:32:05.574Z,3673
2017-12-28T11:32:35.701Z,3737
2017-12-28T11:33:05.668Z,3563
2017-12-28T11:33:35.772Z,3263
2017-12-28T11:34:05.711Z,2927
2017-12-28T11:34:35.739Z,2810
2017-12-28T11:35:05.775Z,2677
2017-12-28T11:35:35.842Z,2633
2017-12-28T11:36:05.847Z,2670
2017-12-28T11:36:35.829Z,2553
2017-12-28T11:37:05.847Z,2510
2017-12-28T11:37:35.903Z,2363
2017-12-28T11:38:05.892Z,2183
2017-12-28T11:38:35.992Z,2273
2017-12-28T11:39:06.015Z,2133
2017-12-28T11:39:36.129Z,2210
2017-12-28T11:40:06.076Z,2390
2017-12-28T11:40:36.084Z,2337
2017-12-28T11:41:06.179Z,2270
2017-12-28T11:41:36.228Z,2047
2017-12-28T11:42:06.246Z,1863
2017-12-28T11:42:36.249Z,1760
2017-12-28T11:43:06.308Z,1840
2017-12-28T11:43:36.297Z,1623
2017-12-28T11:44:06.408Z,1460
2017-12-28T11:44:36.380Z,1437
2017-12-28T11:45:06.412Z,1503
2017-12-28T11:45:36.443Z,1700
2017-12-28T11:46:06.415Z,1827
2017-12-28T11:46:36.494Z,1923
2017-12-28T11:47:06.624Z,2073
2017-12-28T11:47:36.561Z,2227
2017-12-28T11:48:06.549Z,2193
2017-12-28T11:48:36.604Z,2230
2017-12-28T11:49:06.662Z,2317
2017-12-28T11:49:36.662Z,2313
2017-12-28T11:50:06.739Z,2347
2017-12-28T11:50:36.714Z,2370
2017-12-28T11:51:06.898Z,2690
2017-12-28T11:51:36.816Z,2980
2017-12-28T11:52:06.810Z,3043
2017-12-28T11:52:36.907Z,3180
2017-12-28T11:53:06.876Z,3400
2017-12-28T11:53:36.902Z,3773
2017-12-28T11:54:06.934Z,4163
2017-12-28T11:54:37.045Z,4287
2017-12-28T11:55:07.036Z,4607
2017-12-28T11:55:37.110Z,4980
2017-12-28T11:56:07.060Z,5177
2017-12-28T11:56:37.139Z,5220
2017-12-28T11:57:07.159Z,5327
2017-12-28T11:57:37.143Z,5357
2017-12-28T11:58:07.197Z,5473
2017-12-28T11:58:37.256Z,5610
2017-12-28T11:59:07.274Z,5740
2017-12-28T11:59:37.416Z,5800
2017-12-28T12:00:07.435Z,5843
2017-12-28T12:00:37.312Z,5977
2017-12-28T12:01:07.394Z,6017
2017-12-28T12:01:37.351Z,6030
2017-12-28T12:02:07.442Z,5967
2017-12-28T12:02:37.440Z,5993
2017-12-28T12:03:07.488Z,5980
2017-12-28T12:03:37.483Z,5790
2017-12-28T12:04:07.562Z,5720
2017-12-28T12:04:37.565Z,5577
2017-12-28T12:05:07.672Z,5567
2017-12-28T12:05:37.603Z,5673
2017-12-28T12:06:07.637Z,5740
2017-12-28T12:06:37.658Z,5637
2017-12-28T12:07:07.717Z,5680
2017-12-28T12:07:37.800Z,5677
2017-12-28T12:08:07.824Z,5627
2017-12-28T12:08:37.864Z,5593
2017-12-28T12:09:07.842Z,5483
2017-12-28T12:09:37.865Z,5460
2017-12-28T12:10:07.911Z,5443
2017-12-28T12:10:37.963Z,5433
2017-12-28T12:11:07.953Z,5403
2017-12-28T12:11:38.054Z,5360
2017-12-28T12:12:08.063Z,5310
2017-12-28T12:12:38.054Z,5257
2017-12-28T12:13:08.065Z,5323
2017-12-28T12:13:38.102Z,5337
2017-12-28T12:14:08.117Z,5433
2017-12-28T12:14:38.184Z,5560
2017-12-28T12:15:08.222Z,5760
2017-12-28T12:15:38.229Z,5810
2017-12-28T12:16:08.337Z,5763
2017-12-28T12:16:38.397Z,5410
2017-12-28T12:17:08.322Z,5303
2017-12-28T12:17:38.467Z,5137
2017-12-28T12:18:08.344Z,5233
2017-12-28T12:18:38.432Z,5017
2017-12-28T12:19:08.430Z,4773
2017-12-28T12:19:38.550Z,4667
2017-12-28T12:20:08.525Z,4797
2017-12-28T12:20:38.566Z,4720
2017-12-28T12:21:08.596Z,4377
2017-12-28T12:21:38.617Z,4307
2017-12-28T12:22:08.712Z,4403
2017-12-28T12:22:38.737Z,4510
2017-12-28T12:23:08.701Z,4443
2017-12-28T12:23:38.717Z,4250
2017-12-28T12:24:08.742Z,4337
2017-12-28T12:24:38.972Z,4580
2017-12-28T12:25:08.814Z,4267
2017-12-28T12:25:38.985Z,4270
2017-12-28T12:26:08.926Z,4240
2017-12-28T12:26:38.936Z,4213
2017-12-28T12:27:08.944Z,4210
2017-12-28T12:27:39.012Z,4320
2017-12-28T12:28:08.990Z,4440
2017-12-28T12:28:39.067Z,4387
2017-12-28T12:29:09.063Z,4127
2017-12-28T12:29:39.144Z,4130
2017-12-28T12:30:09.174Z,4290
2017-12-28T12:30:39.165Z,4463
2017-12-28T12:31:09.250Z,4573
2017-12-28T12:31:39.212Z,4507
2017-12-28T12:32:09.247Z,4547
2017-12-28T12:32:39.322Z,4707
2017-12-28T12:33:09.334Z,4903
2017-12-28T12:33:39.374Z,4853
2017-12-28T12:34:09.423Z,4860
2017-12-28T12:34:39.414Z,4810
2017-12-28T12:35:09.492Z,4653
2017-12-28T12:35:39.574Z,4560
2017-12-28T12:36:09.512Z,4490
2017-12-28T12:36:39.556Z,4333
2017-12-28T12:37:09.662Z,4113
2017-12-28T12:37:39.655Z,4107
2017-12-28T12:38:09.588Z,3987
2017-12-28T12:38:39.669Z,3960
2017-12-28T12:39:09.686Z,3883
2017-12-28T12:39:39.843Z,3807
2017-12-28T12:40:09.777Z,3767
2017-12-28T12:40:39.826Z,3857
2017-12-28T12:41:09.850Z,3783
2017-12-28T12:41:39.879Z,3680
2017-12-28T12:42:09.923Z,3450
2017-12-28T12:42:39.962Z,2983
2017-12-28T12:43:09.942Z,2590
2017-12-28T12:43:39.982Z,2320
2017-12-28T12:44:10.042Z,2197
2017-12-28T12:44:40.106Z,2147
2017-12-28T12:45:10.149Z,2013
2017-12-28T12:45:40.194Z,1860
2017-12-28T12:46:10.112Z,1797
2017-12-28T12:46:40.172Z,1780
2017-12-28T12:47:10.312Z,1947
2017-12-28T12:47:40.243Z,2230
2017-12-28T12:48:10.296Z,2710
2017-12-28T12:48:40.370Z,3487
2017-12-28T12:49:10.344Z,3653
2017-12-28T12:49:40.330Z,3893
2017-12-28T12:50:10.557Z,3727
2017-12-28T12:50:40.658Z,3440
2017-12-28T12:51:10.486Z,3093
2017-12-28T12:51:40.525Z,2953
2017-12-28T12:52:10.560Z,2860
2017-12-28T12:52:40.570Z,2590
2017-12-28T12:53:10.561Z,2497
2017-12-28T12:53:40.562Z,2547
2017-12-28T12:54:10.602Z,2503
2017-12-28T12:54:40.627Z,2470
2017-12-28T12:55:10.669Z,2387
2017-12-28T12:55:40.791Z,2257
2017-12-28T12:56:10.853Z,2183
2017-12-28T12:56:40.751Z,2157
2017-12-28T12:57:10.767Z,2137
2017-12-28T12:57:40.807Z,1997
2017-12-28T12:58:10.833Z,1950
2017-12-28T12:58:40.911Z,1953
2017-12-28T12:59:10.881Z,2020
2017-12-28T12:59:40.993Z,2067
2017-12-28T13:00:11.003Z,2263
2017-12-28T13:00:41.082Z,2507
2017-12-28T13:01:11.049Z,3010
2017-12-28T13:01:41.174Z,3287
2017-12-28T13:02:11.603Z,3407
2017-12-28T13:02:41.126Z,3680
2017-12-28T13:03:11.170Z,3633
2017-12-28T13:03:41.264Z,3410
2017-12-28T13:04:11.232Z,3137
2017-12-28T13:04:41.247Z,2940
2017-12-28T13:05:11.261Z,2880
2017-12-28T13:05:41.353Z,2940
2017-12-28T13:06:11.302Z,3063
2017-12-28T13:06:41.424Z,3233
2017-12-28T13:07:11.449Z,3163
2017-12-28T13:07:41.467Z,3080
2017-12-28T13:08:41.532Z,3073
2017-12-28T13:09:11.559Z,3117
2017-12-28T13:09:41.699Z,3243
2017-12-28T13:10:11.627Z,3203
2017-12-28T13:10:41.795Z,3350
2017-12-28T13:11:11.641Z,3240
2017-12-28T13:11:41.735Z,3287
2017-12-28T13:12:11.752Z,3390
2017-12-28T13:12:41.849Z,3613
2017-12-28T13:13:11.774Z,3770
2017-12-28T13:13:41.805Z,3450
2017-12-28T13:14:11.919Z,3367
2017-12-28T13:14:42.120Z,3407
2017-12-28T13:15:11.953Z,3307
2017-12-28T13:15:44.435Z,3277
2017-12-28T13:16:12.039Z,3377
2017-12-28T13:16:42.068Z,3467
2017-12-28T13:17:12.053Z,3290
2017-12-28T13:17:42.110Z,3477
2017-12-28T13:18:12.143Z,3450
2017-12-28T13:18:42.167Z,3210
2017-12-28T13:19:12.154Z,3137
2017-12-28T13:19:42.235Z,3257
2017-12-28T13:20:12.258Z,3327
2017-12-28T13:20:42.325Z,3527
2017-12-28T13:21:12.311Z,3800
2017-12-28T13:21:42.325Z,3827
2017-12-28T13:22:12.341Z,3930
2017-12-28T13:22:42.538Z,4290
2017-12-28T13:23:12.366Z,4523
2017-12-28T13:23:42.475Z,5530
2017-12-28T13:24:12.472Z,6247
2017-12-28T13:24:42.488Z,7093
2017-12-28T13:25:12.661Z,7360
2017-12-28T13:25:42.666Z,3840
2017-12-28T13:26:12.677Z,3360
2017-12-28T13:26:42.737Z,4707
2017-12-28T13:27:12.689Z,6053
2017-12-28T13:27:42.742Z,6600
2017-12-28T13:28:12.757Z,7307
2017-12-28T13:28:42.791Z,7813
2017-12-28T13:29:12.823Z,8083
2017-12-28T13:29:42.878Z,3603
2017-12-28T13:30:12.895Z,3617
2017-12-28T13:30:42.883Z,7343
2017-12-28T13:31:13.002Z,5323
2017-12-28T13:31:43.087Z,3240
2017-12-28T13:32:13.051Z,3453
2017-12-28T13:32:43.099Z,3270
2017-12-28T13:33:13.118Z,3413
2017-12-28T13:33:43.243Z,3450
2017-12-28T13:34:13.203Z,3567
2017-12-28T13:34:43.255Z,6510
2017-12-28T13:35:13.302Z,6103
2017-12-28T13:35:43.294Z,6120
2017-12-28T13:36:13.497Z,3400
2017-12-28T13:36:43.367Z,5370
2017-12-28T13:37:13.390Z,3963
2017-12-28T13:37:43.426Z,2753
2017-12-28T13:38:13.467Z,2877
2017-12-28T13:38:43.501Z,3230
2017-12-28T13:39:13.435Z,4857
2017-12-28T13:39:43.601Z,6797
2017-12-28T13:40:13.863Z,6947
2017-12-28T13:40:43.680Z,3030
2017-12-28T13:41:13.692Z,4953
2017-12-28T13:41:43.967Z,7063
2017-12-28T13:42:13.784Z,6317
2017-12-28T13:42:43.733Z,5620
2017-12-28T13:43:13.681Z,4730
2017-12-28T13:43:44.057Z,3887
2017-12-28T13:44:13.891Z,3103
2017-12-28T13:44:43.855Z,3077
2017-12-28T13:45:13.838Z,3163
2017-12-28T13:45:44.002Z,3123
2017-12-28T13:46:13.939Z,2983
2017-12-28T13:46:44.065Z,2843
2017-12-28T13:47:14.037Z,2817
2017-12-28T13:47:44.030Z,2760
2017-12-28T13:48:14.024Z,2687
2017-12-28T13:48:44.128Z,2657
2017-12-28T13:49:14.126Z,2623
2017-12-28T13:49:44.177Z,2583
2017-12-28T13:50:14.252Z,2543
2017-12-28T13:50:44.195Z,2497
2017-12-28T13:51:14.290Z,2470
2017-12-28T13:51:44.264Z,2447
2017-12-28T13:52:14.282Z,2423
2017-12-28T13:52:44.426Z,2410
2017-12-28T13:53:14.309Z,2387
2017-12-28T13:53:44.429Z,2367
2017-12-28T13:54:14.383Z,2353
2017-12-28T13:54:44.421Z,2347
2017-12-28T13:55:14.448Z,2343
2017-12-28T13:55:44.543Z,2340
2017-12-28T13:56:14.674Z,2343
2017-12-28T13:56:44.982Z,2350
2017-12-28T13:57:14.631Z,2360
2017-12-28T13:57:44.769Z,2353
2017-12-28T13:58:14.639Z,2347
2017-12-28T13:58:44.758Z,2357
2017-12-28T13:59:14.749Z,2380
2017-12-28T13:59:44.783Z,2397
2017-12-28T14:00:14.899Z,2380
2017-12-28T14:00:44.919Z,2350
2017-12-28T14:01:15.143Z,2333
2017-12-28T14:01:44.965Z,2327
2017-12-28T14:02:14.828Z,2323
2017-12-28T14:02:44.971Z,2313
2017-12-28T14:03:14.929Z,2310
2017-12-28T14:03:44.975Z,2277
2017-12-28T14:04:15.062Z,2203
2017-12-28T14:04:45.078Z,2140
2017-12-28T14:05:15.023Z,2093
2017-12-28T14:05:45.091Z,2040
2017-12-28T14:06:15.159Z,1997
2017-12-28T14:06:45.132Z,1940
2017-12-28T14:07:15.196Z,1910
2017-12-28T14:07:45.508Z,1880
2017-12-28T14:08:15.232Z,1873
2017-12-28T14:08:45.288Z,1807
2017-12-28T14:09:15.478Z,1800